createdAt,value
2022-10-11T06:18:02.031Z,99.90
2022-10-11T06:20:28.873Z,99.90
2022-10-11T06:22:55.489Z,99.90
2022-10-11T06:25:22.137Z,99.90
2022-10-11T06:27:48.801Z,99.90
2022-10-11T06:30:15.491Z,99.90
2022-10-11T06:32:42.249Z,99.90
2022-10-11T06:35:09.001Z,99.90
2022-10-11T06:37:36.014Z,99.90
2022-10-11T06:40:03.140Z,99.90
2022-10-11T06:42:29.716Z,99.90
2022-10-11T06:44:56.310Z,99.90
2022-10-11T06:47:23.157Z,99.90
2022-10-11T06:49:49.793Z,99.90
2022-10-11T06:52:16.375Z,99.90
2022-10-11T06:54:45.020Z,99.90
2022-10-11T06:57:12.065Z,99.90
2022-10-11T06:59:38.682Z,99.90
2022-10-11T07:02:05.393Z,99.90
2022-10-11T07:04:33.698Z,99.90
2022-10-11T07:07:00.364Z,99.90
2022-10-11T07:09:27.049Z,99.90
2022-10-11T07:11:53.747Z,99.90
2022-10-11T07:14:20.387Z,99.90
2022-10-11T07:16:47.077Z,99.90
2022-10-11T07:19:13.781Z,99.90
2022-10-11T07:21:40.351Z,99.90
2022-10-11T07:24:07.418Z,99.90
2022-10-11T07:26:38.487Z,99.90
2022-10-11T07:29:10.286Z,99.90
2022-10-11T07:31:39.562Z,99.90
2022-10-11T07:34:06.186Z,99.90
2022-10-11T07:36:33.004Z,99.90
2022-10-11T07:38:59.708Z,99.90
2022-10-11T07:41:26.463Z,99.90
2022-10-11T07:43:54.598Z,99.90
2022-10-11T07:46:21.303Z,99.90
2022-10-11T07:48:49.961Z,99.90
2022-10-11T07:51:22.775Z,99.90
2022-10-11T07:53:52.908Z,99.90
2022-10-11T07:56:22.453Z,99.90
2022-10-11T07:58:54.221Z,99.90
2022-10-11T08:01:21.698Z,99.90
2022-10-11T08:03:49.294Z,99.90
2022-10-11T08:06:18.696Z,99.90
2022-10-11T08:08:45.428Z,99.90
2022-10-11T08:11:21.005Z,99.90
2022-10-11T08:13:47.588Z,99.90
2022-10-11T08:16:14.687Z,99.90
2022-10-11T08:18:41.433Z,99.90
2022-10-11T08:21:09.894Z,99.90
2022-10-11T08:23:36.799Z,99.90
2022-10-11T08:26:04.102Z,99.90
2022-10-11T08:28:31.420Z,99.90
2022-10-11T08:30:58.090Z,99.90
2022-10-11T08:33:26.208Z,99.90
2022-10-11T08:35:54.141Z,99.90
2022-10-11T08:38:21.223Z,99.90
2022-10-11T08:40:56.872Z,99.90
2022-10-11T08:43:42.544Z,99.90
2022-10-11T08:46:10.835Z,99.90
2022-10-11T08:48:50.739Z,99.90
2022-10-11T08:51:33.830Z,99.90
2022-10-11T08:54:15.455Z,99.90
2022-10-11T08:56:44.068Z,99.90
2022-10-11T08:59:13.628Z,99.90
2022-10-11T09:02:10.821Z,99.90
2022-10-11T09:04:37.424Z,99.90
2022-10-11T09:07:37.438Z,99.90
2022-10-11T09:10:30.394Z,99.90
2022-10-11T09:13:07.024Z,99.90
2022-10-11T09:16:15.302Z,99.90
2022-10-11T09:18:47.656Z,99.90
2022-10-11T09:21:28.257Z,99.90
2022-10-11T09:24:34.761Z,99.90
2022-10-11T09:27:18.137Z,99.90
2022-10-11T09:29:54.571Z,99.90
2022-10-11T09:32:21.610Z,99.90
2022-10-11T09:34:57.480Z,99.90
2022-10-11T09:37:42.296Z,99.90
2022-10-11T09:40:21.047Z,99.90
2022-10-11T09:42:47.651Z,99.90
2022-10-11T09:45:19.900Z,98.90
2022-10-11T09:47:48.242Z,99.00
2022-10-11T09:50:18.845Z,96.50
2022-10-11T09:52:52.947Z,96.90
2022-10-11T09:55:43.637Z,97.00
2022-10-11T09:58:31.768Z,95.10
2022-10-11T10:01:09.986Z,94.00
2022-10-11T10:03:44.079Z,93.90
2022-10-11T10:06:23.166Z,92.00
2022-10-11T10:08:50.620Z,92.20
2022-10-11T10:11:18.399Z,91.00
2022-10-11T10:13:49.732Z,90.20
2022-10-11T10:16:29.951Z,88.50
2022-10-11T10:19:16.157Z,90.00
2022-10-11T10:21:49.157Z,90.10
2022-10-11T10:24:27.924Z,87.10
2022-10-11T10:27:18.865Z,86.90
2022-10-11T10:30:03.239Z,84.60
2022-10-11T10:32:36.885Z,82.50
2022-10-11T10:35:32.828Z,82.00
2022-10-11T10:37:59.400Z,78.60
2022-10-11T10:40:42.869Z,79.20
2022-10-11T10:43:19.817Z,80.70
2022-10-11T10:45:58.173Z,80.30
2022-10-11T10:49:18.736Z,77.30
2022-10-11T10:51:44.053Z,74.40
2022-10-11T10:54:34.049Z,75.90
2022-10-11T10:57:13.509Z,75.40
2022-10-11T11:00:01.829Z,75.00
2022-10-11T11:02:46.138Z,74.30
2022-10-11T11:05:31.558Z,74.60
2022-10-11T11:08:12.765Z,71.40
2022-10-11T11:10:49.163Z,72.60
2022-10-11T11:13:41.601Z,70.50
2022-10-11T11:16:28.474Z,70.70
2022-10-11T11:19:16.830Z,70.30
2022-10-11T11:22:00.751Z,70.40
2022-10-11T11:24:52.369Z,69.70
2022-10-11T11:27:27.948Z,69.80
2022-10-11T11:30:03.979Z,67.20
2022-10-11T11:33:08.216Z,68.50
2022-10-11T11:35:39.120Z,65.70
2022-10-11T11:38:30.811Z,68.20
2022-10-11T11:41:05.301Z,66.00
2022-10-11T11:43:39.410Z,65.50
2022-10-11T11:46:21.964Z,65.60
2022-10-11T11:48:52.306Z,65.10
2022-10-11T11:51:30.585Z,66.10
2022-10-11T11:54:16.027Z,64.50
2022-10-11T11:56:42.500Z,66.60
2022-10-11T11:59:11.877Z,63.80
2022-10-11T12:02:24.575Z,65.20
2022-10-11T12:04:52.201Z,63.20
2022-10-11T12:07:22.362Z,63.50
2022-10-11T12:09:54.258Z,63.00
2022-10-11T12:12:34.069Z,62.50
2022-10-11T12:15:12.613Z,62.60
2022-10-11T12:18:15.347Z,62.40
2022-10-11T12:20:43.809Z,59.80
2022-10-11T12:23:30.324Z,60.50
2022-10-11T12:26:17.771Z,60.50
2022-10-11T12:28:59.344Z,60.10
2022-10-11T12:31:29.911Z,59.30
2022-10-11T12:34:02.506Z,60.60
2022-10-11T12:36:32.156Z,58.90
2022-10-11T12:39:21.037Z,62.20
2022-10-11T12:41:47.668Z,63.10
2022-10-11T12:44:24.091Z,63.30
2022-10-11T12:46:50.655Z,62.70
2022-10-11T12:49:42.162Z,60.10
2022-10-11T12:52:17.895Z,60.00
2022-10-11T12:55:06.755Z,55.20
2022-10-11T12:58:06.102Z,57.10
2022-10-11T13:01:09.670Z,53.80
2022-10-11T13:03:42.438Z,52.50
2022-10-11T13:06:15.565Z,52.80
2022-10-11T13:08:45.683Z,52.10
2022-10-11T13:11:19.496Z,54.50
2022-10-11T13:13:53.441Z,52.50
2022-10-11T13:16:27.334Z,50.50
2022-10-11T13:18:59.679Z,50.00
2022-10-11T13:21:32.853Z,50.40
2022-10-11T13:24:09.590Z,49.80
2022-10-11T13:26:36.399Z,48.10
2022-10-11T13:29:03.195Z,46.60
2022-10-11T13:31:29.871Z,47.30
2022-10-11T13:33:59.294Z,48.20
2022-10-11T13:36:27.403Z,48.40
2022-10-11T13:39:00.283Z,48.70
2022-10-11T13:41:29.419Z,46.60
2022-10-11T13:43:58.209Z,46.10
2022-10-11T13:46:27.347Z,45.60
2022-10-11T13:49:37.842Z,44.70
2022-10-11T13:52:20.617Z,46.90
2022-10-11T13:55:00.617Z,45.00
2022-10-11T13:57:48.391Z,45.10
2022-10-11T14:00:14.940Z,45.40
2022-10-11T14:02:55.210Z,46.50
2022-10-11T14:05:35.702Z,46.10
2022-10-11T14:08:06.913Z,46.40
2022-10-11T14:10:34.175Z,45.90
2022-10-11T14:13:19.453Z,46.60
2022-10-11T14:15:46.052Z,43.80
2022-10-11T14:18:38.485Z,43.30
2022-10-11T14:21:45.174Z,44.40
2022-10-11T14:24:13.413Z,45.30
2022-10-11T14:26:44.106Z,45.40
2022-10-11T14:29:22.445Z,44.10
2022-10-11T14:31:49.766Z,45.90
2022-10-11T14:34:22.034Z,45.20
2022-10-11T14:36:50.381Z,46.60
2022-10-11T14:39:22.514Z,47.20
2022-10-11T14:41:50.202Z,47.20
2022-10-11T14:44:17.772Z,47.60
2022-10-11T14:46:45.929Z,48.00
2022-10-11T14:49:21.824Z,49.20
2022-10-11T14:51:50.890Z,48.50
2022-10-11T14:54:19.770Z,48.70
2022-10-11T14:56:46.837Z,48.70
2022-10-11T14:59:16.211Z,49.40
2022-10-11T15:01:43.030Z,49.00
2022-10-11T15:04:09.881Z,51.50
2022-10-11T15:06:39.103Z,50.80
2022-10-11T15:09:07.121Z,50.10
2022-10-11T15:11:33.781Z,50.80
2022-10-11T15:14:00.511Z,50.80
2022-10-11T15:16:27.126Z,50.40
2022-10-11T15:18:53.907Z,51.50
2022-10-11T15:21:23.869Z,51.00
2022-10-11T15:23:51.611Z,51.60
2022-10-11T15:26:22.233Z,51.90
2022-10-11T15:28:50.193Z,52.20
2022-10-11T15:31:17.645Z,52.50
2022-10-11T15:33:44.408Z,54.00
2022-10-11T15:36:22.244Z,51.40
2022-10-11T15:38:49.519Z,54.80
2022-10-11T15:41:19.047Z,53.10
2022-10-11T15:43:47.458Z,55.30
2022-10-11T15:46:23.621Z,55.20
2022-10-11T15:48:51.715Z,55.00
2022-10-11T15:51:18.862Z,56.60
2022-10-11T15:53:46.704Z,57.20
2022-10-11T15:56:16.796Z,58.40
2022-10-11T15:58:43.953Z,56.80
2022-10-11T16:01:19.242Z,60.90
2022-10-11T16:03:48.341Z,61.50
2022-10-11T16:06:15.841Z,60.50
2022-10-11T16:08:42.546Z,60.80
2022-10-11T16:11:09.849Z,64.00
2022-10-11T16:13:36.912Z,64.10
2022-10-11T16:16:06.523Z,64.00
2022-10-11T16:18:35.604Z,66.40
2022-10-11T16:21:08.638Z,68.30
2022-10-11T16:23:36.463Z,69.10
2022-10-11T16:26:07.239Z,70.50
2022-10-11T16:28:34.692Z,71.90
2022-10-11T16:31:08.028Z,72.40
2022-10-11T16:33:34.708Z,72.70
2022-10-11T16:36:25.256Z,73.20
2022-10-11T16:38:51.815Z,73.40
2022-10-11T16:41:18.396Z,74.10
2022-10-11T16:43:45.086Z,74.60
2022-10-11T16:46:11.669Z,75.60
2022-10-11T16:48:38.265Z,75.80
2022-10-11T16:51:09.010Z,76.30
2022-10-11T16:53:36.125Z,76.90
2022-10-11T16:56:08.240Z,77.60
2022-10-11T16:58:36.240Z,78.10
2022-10-11T17:01:06.940Z,78.70
2022-10-11T17:03:33.642Z,79.40
2022-10-11T17:06:00.338Z,79.70
2022-10-11T17:08:26.994Z,79.90
2022-10-11T17:10:57.793Z,80.10
2022-10-11T17:13:24.999Z,80.70
2022-10-11T17:15:51.801Z,80.90
2022-10-11T17:18:18.583Z,81.40
2022-10-11T17:20:45.496Z,82.20
2022-10-11T17:23:12.242Z,82.30
2022-10-11T17:25:43.245Z,82.60
2022-10-11T17:28:10.072Z,83.20
2022-10-11T17:30:36.876Z,83.20
2022-10-11T17:33:04.131Z,83.20
2022-10-11T17:35:32.012Z,83.70
2022-10-11T17:38:05.030Z,84.00
2022-10-11T17:40:32.651Z,83.90
2022-10-11T17:42:59.370Z,84.70
2022-10-11T17:45:26.067Z,85.30
2022-10-11T17:47:52.689Z,85.10
2022-10-11T17:50:19.395Z,86.20
2022-10-11T17:52:46.063Z,86.50
2022-10-11T17:55:12.700Z,86.30
2022-10-11T17:57:39.386Z,87.00
2022-10-11T18:00:06.595Z,87.60
2022-10-11T18:02:33.582Z,87.90
2022-10-11T18:05:00.192Z,87.90
2022-10-11T18:07:26.822Z,88.90
2022-10-11T18:09:53.416Z,88.30
2022-10-11T18:12:20.222Z,88.10
2022-10-11T18:14:46.863Z,88.50
2022-10-11T18:17:13.497Z,88.80
2022-10-11T18:19:40.101Z,89.00
2022-10-11T18:22:07.363Z,89.40
2022-10-11T18:24:34.319Z,89.50
2022-10-11T18:27:01.041Z,89.80
2022-10-11T18:29:27.857Z,90.10
2022-10-11T18:31:54.493Z,90.00
2022-10-11T18:34:21.179Z,90.00
2022-10-11T18:36:48.997Z,90.00
2022-10-11T18:39:15.782Z,90.00
2022-10-11T18:41:44.843Z,90.30
2022-10-11T18:44:16.644Z,90.40
2022-10-11T18:46:44.253Z,90.30
2022-10-11T18:49:11.303Z,90.50
2022-10-11T18:51:39.779Z,91.00
2022-10-11T18:54:08.534Z,90.70
2022-10-11T18:56:36.952Z,90.70
2022-10-11T18:59:04.979Z,90.80
2022-10-11T19:01:34.902Z,90.80
2022-10-11T19:04:03.455Z,90.80
2022-10-11T19:06:36.555Z,90.90
2022-10-11T19:09:14.845Z,90.80
2022-10-11T19:11:44.794Z,90.60
2022-10-11T19:14:14.882Z,91.10
2022-10-11T19:16:45.255Z,91.40
2022-10-11T19:19:13.002Z,90.90
2022-10-11T19:21:40.105Z,91.20
2022-10-11T19:24:07.068Z,91.00
2022-10-11T19:26:36.499Z,91.00
2022-10-11T19:29:20.286Z,90.90
2022-10-11T19:31:49.793Z,91.50
2022-10-11T19:34:16.550Z,91.50
2022-10-11T19:36:43.256Z,91.60
2022-10-11T19:39:17.656Z,91.70
2022-10-11T19:41:45.077Z,91.70
2022-10-11T19:44:13.017Z,91.50
2022-10-11T19:46:55.401Z,91.50
2022-10-11T19:49:25.900Z,91.40
2022-10-11T19:51:53.507Z,91.60
2022-10-11T19:54:20.256Z,91.60
2022-10-11T19:56:47.722Z,91.60
2022-10-11T19:59:14.988Z,91.80
2022-10-11T20:01:42.554Z,91.80
2022-10-11T20:04:27.441Z,92.00
2022-10-11T20:06:58.866Z,91.90
2022-10-11T20:09:30.413Z,92.00
2022-10-11T20:11:57.589Z,91.70
2022-10-11T20:14:25.281Z,92.00
2022-10-11T20:16:52.140Z,92.40
2022-10-11T20:19:19.353Z,92.10
2022-10-11T20:21:47.244Z,92.10
2022-10-11T20:24:13.899Z,92.20
2022-10-11T20:26:40.475Z,92.00
2022-10-11T20:29:07.376Z,92.70
2022-10-11T20:31:38.425Z,92.10
2022-10-11T20:34:07.215Z,92.20
2022-10-11T20:36:35.999Z,92.10
2022-10-11T20:39:03.855Z,92.30
2022-10-11T20:41:33.478Z,92.20
2022-10-11T20:44:01.594Z,92.80
2022-10-11T20:46:31.615Z,92.30
2022-10-11T20:49:02.150Z,92.60
2022-10-11T20:51:35.031Z,92.40
2022-10-11T20:54:04.033Z,92.40
2022-10-11T20:56:31.112Z,92.30
2022-10-11T20:58:58.567Z,92.60
2022-10-11T21:01:31.593Z,92.40
2022-10-11T21:04:00.374Z,92.70
2022-10-11T21:06:28.435Z,92.70
2022-10-11T21:08:56.470Z,92.90
2022-10-11T21:11:33.450Z,93.50
2022-10-11T21:14:02.896Z,94.00
2022-10-11T21:16:29.877Z,93.80
2022-10-11T21:18:58.346Z,93.40
2022-10-11T21:21:25.908Z,93.30
2022-10-11T21:24:02.354Z,93.10
2022-10-11T21:26:29.887Z,92.70
2022-10-11T21:28:59.019Z,93.20
2022-10-11T21:31:29.601Z,92.60
2022-10-11T21:33:59.825Z,93.00
2022-10-11T21:36:26.568Z,93.60
2022-10-11T21:38:53.829Z,93.50
2022-10-11T21:41:23.372Z,93.50
